Time;durP1;ratioP1;P1;durP2;ratioP2;P2;SDS_P1;SDS_P2;PMS_P1;PMS_P2;Temp;Humidity;BMP_temperature;BMP_pressure;BME280_temperature;BME280_humidity;BME280_pressure;Samples;Min_cycle;Max_cycle;Signal;HPM_P1;HPM_P2
2022/10/06 00:00:26;;;;;;;3.60;2.67;;;;;;;13.87;100.00;101047.25;5084213;28;20690;-75
2022/10/06 00:02:52;;;;;;;2.70;2.50;;;;;;;13.84;100.00;101042.06;5079031;28;20270;-73
2022/10/06 00:05:17;;;;;;;2.50;2.30;;;;;;;13.82;100.00;101056.84;5074351;28;20235;-73
2022/10/06 00:07:42;;;;;;;3.67;2.30;;;;;;;13.81;100.00;101059.47;5076772;28;20219;-73
2022/10/06 00:10:11;;;;;;;3.50;2.50;;;;;;;13.80;100.00;101055.13;5078621;28;20200;-73
2022/10/06 00:12:45;;;;;;;2.67;2.30;;;;;;;13.79;100.00;101069.03;5074438;28;20189;-72
2022/10/06 00:15:12;;;;;;;4.53;2.43;;;;;;;13.76;100.00;101071.63;5073471;28;20931;-73
2022/10/06 00:17:37;;;;;;;2.97;2.77;;;;;;;13.75;100.00;101077.72;5076766;28;20206;-74
2022/10/06 00:20:04;;;;;;;2.73;2.53;;;;;;;13.72;100.00;101086.44;5078889;28;20197;-74
2022/10/06 00:22:38;;;;;;;3.30;2.90;;;;;;;13.70;100.00;101091.63;5075007;28;20561;-73
2022/10/06 00:25:04;;;;;;;3.37;2.93;;;;;;;13.67;100.00;101094.28;5081002;28;20628;-75
2022/10/06 00:27:33;;;;;;;3.87;2.93;;;;;;;13.64;100.00;101104.69;5085647;28;20183;-74
2022/10/06 00:29:59;;;;;;;3.17;2.87;;;;;;;13.61;100.00;101101.28;5082589;28;20699;-73
2022/10/06 00:32:24;;;;;;;3.30;3.00;;;;;;;13.58;100.00;101109.94;5084666;28;20195;-74
2022/10/06 00:34:51;;;;;;;3.60;2.77;;;;;;;13.53;100.00;101107.38;5084712;28;20182;-74
2022/10/06 00:37:16;;;;;;;3.90;2.90;;;;;;;13.50;100.00;101103.94;5086760;28;20205;-73
2022/10/06 00:39:42;;;;;;;4.53;3.10;;;;;;;13.49;100.00;101110.03;5085684;28;20606;-75
2022/10/06 00:42:20;;;;;;;3.27;2.53;;;;;;;13.47;100.00;101111.78;5083189;28;20221;-73
2022/10/06 00:44:48;;;;;;;2.77;2.57;;;;;;;13.46;100.00;101110.03;5084355;28;20181;-74
2022/10/06 00:47:13;;;;;;;3.77;2.43;;;;;;;13.45;100.00;101108.31;5081928;28;20185;-72
2022/10/06 00:49:38;;;;;;;3.33;2.73;;;;;;;13.45;100.00;101104.00;5083183;28;20223;-72
2022/10/06 00:52:11;;;;;;;4.43;3.37;;;;;;;13.49;100.00;101104.81;5089098;28;20174;-73
2022/10/06 00:54:40;;;;;;;4.17;2.57;;;;;;;13.51;100.00;101108.28;5083151;28;20202;-75
2022/10/06 00:57:06;;;;;;;3.43;3.13;;;;;;;13.52;100.00;101110.84;5082500;28;20294;-74
2022/10/06 00:59:31;;;;;;;4.60;2.63;;;;;;;13.54;100.00;101116.03;5077142;28;20293;-73
2022/10/06 01:02:14;;;;;;;3.10;2.70;;;;;;;13.56;100.00;101120.38;5080519;28;20197;-73
2022/10/06 01:04:46;;;;;;;3.63;2.57;;;;;;;13.59;100.00;101118.63;5076384;28;20187;-74
2022/10/06 01:07:12;;;;;;;3.00;2.70;;;;;;;13.57;100.00;101114.28;5074979;28;20190;-73
2022/10/06 01:09:39;;;;;;;3.13;2.83;;;;;;;13.57;100.00;101105.63;5079115;28;20215;-75
2022/10/06 01:12:07;;;;;;;3.77;2.97;;;;;;;13.58;100.00;101099.53;5078099;28;20199;-73
2022/10/06 01:14:35;;;;;;;3.00;2.70;;;;;;;13.57;100.00;101090.88;5078201;28;20752;-73
2022/10/06 01:17:08;;;;;;;3.67;2.73;;;;;;;13.61;100.00;101104.72;5079165;28;20206;-74
2022/10/06 01:19:46;;;;;;;3.50;2.60;;;;;;;13.61;100.00;101106.47;5077323;28;20219;-73
2022/10/06 01:22:15;;;;;;;3.47;2.87;;;;;;;13.62;100.00;101115.97;5070858;28;20193;-74
2022/10/06 01:24:40;;;;;;;2.77;2.50;;;;;;;13.63;100.00;101121.19;5072867;28;20218;-73
2022/10/06 01:27:07;;;;;;;5.07;2.90;;;;;;;13.67;100.00;101114.22;5081860;28;20682;-73
2022/10/06 01:29:34;;;;;;;2.80;2.47;;;;;;;13.70;100.00;101111.59;5077420;28;20254;-73
2022/10/06 01:32:00;;;;;;;6.17;3.00;;;;;;;13.74;100.00;101121.09;5076847;28;20184;-73
2022/10/06 01:34:26;;;;;;;3.20;2.60;;;;;;;13.77;100.00;101118.44;5075328;28;20194;-74
2022/10/06 01:36:52;;;;;;;3.07;2.77;;;;;;;13.77;100.00;101118.44;5073338;28;20210;-73
2022/10/06 01:39:17;;;;;;;2.83;2.40;;;;;;;13.77;100.00;101126.25;5074475;28;20269;-74
2022/10/06 01:41:46;;;;;;;3.47;2.40;;;;;;;13.80;100.00;101121.03;5076885;28;20208;-73
2022/10/06 01:44:11;;;;;;;3.20;2.57;;;;;;;13.87;100.00;101114.03;5070171;28;20213;-73
2022/10/06 01:46:37;;;;;;;3.37;2.50;;;;;;;13.97;100.00;101125.22;5074205;28;20214;-73
2022/10/06 01:49:02;;;;;;;3.53;2.57;;;;;;;14.04;100.00;101124.28;5083902;28;20219;-73
2022/10/06 01:51:27;;;;;;;4.23;2.63;;;;;;;14.13;100.00;101121.59;5077049;28;20193;-75
2022/10/06 01:53:52;;;;;;;4.97;2.77;;;;;;;14.22;100.00;101128.44;5076036;28;20196;-73
2022/10/06 01:56:19;;;;;;;2.67;2.47;;;;;;;14.31;100.00;101133.53;5074709;28;20219;-74
2022/10/06 01:58:45;;;;;;;2.97;2.67;;;;;;;14.37;100.00;101131.75;5080640;28;20209;-74
2022/10/06 02:01:10;;;;;;;3.53;2.70;;;;;;;14.38;100.00;101136.94;5079534;28;20721;-73
2022/10/06 02:03:37;;;;;;;2.63;2.37;;;;;;;14.39;100.00;101133.44;5081437;28;20189;-74
2022/10/06 02:06:03;;;;;;;4.37;2.70;;;;;;;14.38;100.00;101138.69;5075473;28;20284;-74
2022/10/06 02:08:31;;;;;;;2.70;2.50;;;;;;;14.35;100.00;101143.91;5079863;28;20208;-73
2022/10/06 02:10:57;;;;;;;3.00;2.70;;;;;;;14.31;100.00;101141.34;5078919;28;20219;-75
2022/10/06 02:13:24;;;;;;;3.17;2.87;;;;;;;14.27;100.00;101138.78;5074096;28;20213;-73
2022/10/06 02:15:50;;;;;;;2.93;2.70;;;;;;;14.25;100.00;101153.56;5083921;28;20184;-73
2022/10/06 02:18:16;;;;;;;2.83;2.63;;;;;;;14.26;100.00;101160.50;5083577;28;20584;-74
2022/10/06 02:20:41;;;;;;;3.23;2.20;;;;;;;14.29;100.00;101170.88;5079333;28;20185;-75
2022/10/06 02:23:07;;;;;;;4.40;2.87;;;;;;;14.31;100.00;101183.00;5079092;28;20620;-74
2022/10/06 02:25:32;;;;;;;3.10;2.73;;;;;;;14.32;100.00;101186.47;5085149;28;20786;-74
2022/10/06 02:27:57;;;;;;;3.17;2.70;;;;;;;14.33;100.00;101190.81;5085555;28;20206;-74
2022/10/06 02:30:23;;;;;;;4.30;2.90;;;;;;;14.39;100.00;101197.69;5084796;28;20238;-73
2022/10/06 02:32:48;;;;;;;3.07;2.77;;;;;;;14.43;100.00;101197.66;5086644;28;20192;-74
2022/10/06 02:35:13;;;;;;;3.63;2.97;;;;;;;14.51;100.00;101200.16;5088029;28;20189;-73
2022/10/06 02:37:40;;;;;;;2.83;2.57;;;;;;;14.59;100.00;101206.19;5086030;28;20613;-73
2022/10/06 02:40:07;;;;;;;3.50;3.20;;;;;;;14.69;100.00;101217.38;5083167;28;20234;-73
2022/10/06 02:42:35;;;;;;;3.33;3.00;;;;;;;14.77;100.00;101212.06;5080892;28;20202;-73
2022/10/06 02:45:00;;;;;;;4.00;3.60;;;;;;;14.86;100.00;101217.19;5088076;28;20195;-73
2022/10/06 02:47:25;;;;;;;3.20;2.80;;;;;;;14.90;100.00;101216.25;5080973;28;20177;-72
2022/10/06 02:49:51;;;;;;;3.80;3.10;;;;;;;14.98;100.00;101223.13;5086735;28;20198;-73
2022/10/06 02:52:16;;;;;;;4.83;3.40;;;;;;;15.04;100.00;101234.34;5073052;28;20189;-75
2022/10/06 02:54:41;;;;;;;3.83;3.20;;;;;;;15.08;100.00;101232.53;5072345;28;20201;-75
2022/10/06 02:57:07;;;;;;;4.00;3.40;;;;;;;15.14;100.00;101232.47;5068071;28;20334;-76
2022/10/06 02:59:33;;;;;;;3.10;2.80;;;;;;;15.16;100.00;101235.06;5078680;28;22172;-73
2022/10/06 03:01:58;;;;;;;5.17;3.17;;;;;;;15.20;100.00;101232.38;5073265;28;20185;-74
2022/10/06 03:04:23;;;;;;;6.37;5.77;;;;;;;15.23;100.00;101240.16;5075140;28;20197;-74
2022/10/06 03:06:49;;;;;;;6.60;6.00;;;;;;;15.28;100.00;101241.88;5073782;28;20198;-74
2022/10/06 03:09:14;;;;;;;6.30;5.70;;;;;;;15.30;100.00;101256.59;5076843;28;20273;-76
2022/10/06 03:11:41;;;;;;;12.83;11.47;;;;;;;15.32;100.00;101261.81;5073793;28;20323;-73
2022/10/06 03:14:07;;;;;;;18.57;16.87;;;;;;;15.34;100.00;101273.94;5072399;28;20273;-75
2022/10/06 03:16:37;;;;;;;15.80;14.40;;;;;;;15.36;100.00;101266.09;5074486;28;20267;-73
2022/10/06 03:19:04;;;;;;;12.73;11.73;;;;;;;15.36;100.00;101281.72;5078338;28;20208;-75
2022/10/06 03:21:34;;;;;;;9.13;8.37;;;;;;;15.37;100.00;101278.25;5073830;28;20213;-73
2022/10/06 03:24:00;;;;;;;8.23;7.57;;;;;;;15.36;100.00;101276.50;5077812;28;20602;-73
2022/10/06 03:26:32;;;;;;;6.83;6.33;;;;;;;15.37;100.00;101284.34;5076384;28;20189;-74
2022/10/06 03:28:57;;;;;;;7.17;6.47;;;;;;;15.39;100.00;101281.69;5084961;28;20213;-73
2022/10/06 03:31:24;;;;;;;9.17;8.30;;;;;;;15.39;100.00;101287.78;5082669;28;20185;-73
2022/10/06 03:33:50;;;;;;;7.10;6.43;;;;;;;15.41;100.00;101299.94;5073472;28;20845;-72
2022/10/06 03:36:18;;;;;;;7.57;6.87;;;;;;;15.38;100.00;101296.50;5071527;28;20219;-74
2022/10/06 03:38:43;;;;;;;7.77;7.17;;;;;;;15.38;100.00;101298.22;5070106;28;20246;-75
2022/10/06 03:41:13;;;;;;;5.70;5.20;;;;;;;15.38;100.00;101303.44;5078741;28;20271;-73
2022/10/06 03:43:41;;;;;;;6.77;6.17;;;;;;;15.37;100.00;101315.63;5079264;28;20205;-73
2022/10/06 03:46:06;;;;;;;8.33;7.70;;;;;;;15.36;100.00;101316.53;5081169;28;20893;-74
2022/10/06 03:48:33;;;;;;;5.73;5.13;;;;;;;15.36;100.00;101320.84;5079666;28;20233;-75
2022/10/06 03:51:05;;;;;;;5.90;4.53;;;;;;;15.35;100.00;101321.75;5079812;28;20195;-73
2022/10/06 03:53:32;;;;;;;5.60;3.80;;;;;;;15.33;100.00;101326.13;5080079;28;20177;-74
2022/10/06 03:56:05;;;;;;;4.40;3.73;;;;;;;15.31;100.00;101325.28;5083493;28;20189;-76
2022/10/06 03:58:33;;;;;;;4.57;4.00;;;;;;;15.29;100.00;101338.31;5080417;28;20197;-76
2022/10/06 04:01:07;;;;;;;4.90;3.70;;;;;;;15.27;100.00;101345.31;5078670;28;20245;-73
2022/10/06 04:03:33;;;;;;;5.43;4.90;;;;;;;15.23;100.00;101344.47;5072037;28;20190;-74
2022/10/06 04:06:00;;;;;;;6.13;5.03;;;;;;;15.21;100.00;101341.03;5075807;28;20200;-73
2022/10/06 04:08:27;;;;;;;6.43;5.30;;;;;;;15.20;100.00;101344.50;5080411;28;20197;-74
2022/10/06 04:10:52;;;;;;;6.20;5.40;;;;;;;15.20;100.00;101352.31;5073570;28;20276;-73
2022/10/06 04:13:19;;;;;;;5.60;5.07;;;;;;;15.19;100.00;101353.25;5078737;28;20265;-73
2022/10/06 04:15:45;;;;;;;7.03;5.50;;;;;;;15.17;100.00;101354.13;5073935;28;20182;-75
2022/10/06 04:18:12;;;;;;;5.10;4.60;;;;;;;15.19;100.00;101355.84;5076709;28;20226;-76
2022/10/06 04:20:38;;;;;;;6.27;5.17;;;;;;;15.19;100.00;101358.44;5103898;28;20200;-76
2022/10/06 04:23:04;;;;;;;7.63;5.97;;;;;;;15.18;100.00;101361.94;5102836;28;20173;-73
2022/10/06 04:25:30;;;;;;;8.67;6.83;;;;;;;15.18;100.00;101363.66;5088951;28;20184;-73
2022/10/06 04:27:56;;;;;;;9.43;7.67;;;;;;;15.19;100.00;101371.50;5082473;28;20198;-74
2022/10/06 04:30:23;;;;;;;6.73;6.03;;;;;;;15.19;100.00;101378.44;5086782;28;20189;-74
2022/10/06 04:32:48;;;;;;;5.80;5.20;;;;;;;15.20;100.00;101382.78;5084568;28;20267;-74
2022/10/06 04:35:14;;;;;;;5.00;4.50;;;;;;;15.21;100.00;101384.50;5073166;28;20197;-73
2022/10/06 04:37:39;;;;;;;5.10;4.60;;;;;;;15.22;100.00;101378.41;5085304;28;20231;-73
2022/10/06 04:40:05;;;;;;;5.80;4.50;;;;;;;15.24;100.00;101394.91;5080955;28;20193;-73
2022/10/06 04:42:31;;;;;;;5.83;4.93;;;;;;;15.25;100.00;101388.81;5080565;28;20744;-74
2022/10/06 04:44:56;;;;;;;8.33;5.23;;;;;;;15.27;100.00;101397.47;5080026;28;20184;-74
2022/10/06 04:47:21;;;;;;;7.00;6.27;;;;;;;15.26;100.00;101395.75;5076248;28;20658;-74
2022/10/06 04:49:47;;;;;;;7.07;5.00;;;;;;;15.28;100.00;101391.34;5072774;28;20191;-74
2022/10/06 04:52:12;;;;;;;17.90;16.00;;;;;;;15.29;100.00;101402.66;5074123;28;20232;-74
2022/10/06 04:54:37;;;;;;;15.93;14.43;;;;;;;15.26;100.00;101398.38;5072020;28;20703;-74
2022/10/06 04:57:03;;;;;;;22.47;20.17;;;;;;;15.24;100.00;101406.19;5074733;28;20204;-73
2022/10/06 05:02:12;;;;;;;9.30;8.37;;;;;;;15.23;100.00;101419.25;5075400;28;20221;-74
2022/10/06 05:04:38;;;;;;;10.00;7.00;;;;;;;15.21;100.00;101421.84;5076719;28;20225;-73
2022/10/06 05:07:04;;;;;;;7.17;5.43;;;;;;;15.22;100.00;101420.13;5072773;28;20183;-73
2022/10/06 05:09:30;;;;;;;6.03;5.27;;;;;;;15.21;100.00;101424.47;5071825;28;20930;-72
2022/10/06 05:11:55;;;;;;;6.13;4.60;;;;;;;15.20;100.00;101433.16;5072345;28;20189;-73
2022/10/06 05:14:21;;;;;;;5.13;4.10;;;;;;;15.19;100.00;101441.00;5073330;28;20194;-74
2022/10/06 05:16:46;;;;;;;4.80;4.40;;;;;;;15.17;100.00;101437.56;5079209;28;21452;-75
2022/10/06 05:19:11;;;;;;;4.47;4.03;;;;;;;15.17;100.00;101447.97;5074655;28;20210;-74
2022/10/06 05:21:37;;;;;;;4.43;3.93;;;;;;;15.14;100.00;101448.00;5090610;28;20276;-74
2022/10/06 05:24:02;;;;;;;4.03;3.63;;;;;;;15.14;100.00;101448.00;5075363;28;20212;-74
2022/10/06 05:26:29;;;;;;;3.60;3.30;;;;;;;15.13;100.00;101459.31;5082711;28;20175;-73
2022/10/06 05:28:55;;;;;;;3.80;3.40;;;;;;;15.13;100.00;101462.81;5074348;28;20286;-73
2022/10/06 05:31:23;;;;;;;3.80;3.10;;;;;;;15.12;100.00;101458.47;5087792;28;20282;-74
2022/10/06 05:33:49;;;;;;;3.93;3.10;;;;;;;15.12;100.00;101468.03;5087866;28;20199;-74
2022/10/06 05:36:17;;;;;;;3.40;2.90;;;;;;;15.11;100.00;101467.16;5084288;28;20656;-73
2022/10/06 05:38:43;;;;;;;3.87;3.27;;;;;;;15.10;100.00;101483.69;5079578;28;20211;-73
2022/10/06 05:41:18;;;;;;;3.30;2.73;;;;;;;15.09;100.00;101481.94;5072408;28;20249;-75
2022/10/06 05:43:44;;;;;;;4.17;3.23;;;;;;;15.09;100.00;101482.81;5074668;28;20194;-73
2022/10/06 05:46:18;;;;;;;3.53;3.13;;;;;;;15.09;100.00;101489.75;5084764;28;20184;-73
2022/10/06 05:48:46;;;;;;;5.03;3.83;;;;;;;15.10;100.00;101488.88;5084362;28;20212;-74
2022/10/06 05:51:12;;;;;;;4.03;3.47;;;;;;;15.09;100.00;101492.38;5085565;28;20302;-74
2022/10/06 05:53:38;;;;;;;3.90;3.30;;;;;;;15.09;100.00;101497.59;5082360;28;20200;-73
2022/10/06 05:56:11;;;;;;;3.63;3.13;;;;;;;15.08;100.00;101494.13;5072612;28;20186;-73
2022/10/06 05:58:39;;;;;;;3.90;3.23;;;;;;;15.06;100.00;101503.69;5083641;28;20319;-73
2022/10/06 06:01:25;;;;;;;3.30;2.80;;;;;;;15.06;100.00;101505.44;5074003;28;20284;-73
2022/10/06 06:03:56;;;;;;;2.87;2.30;;;;;;;15.03;100.00;101501.13;5082487;28;20209;-73
2022/10/06 06:06:24;;;;;;;3.77;2.47;;;;;;;15.04;100.00;101512.44;5079402;28;20244;-74
2022/10/06 06:08:55;;;;;;;2.77;2.50;;;;;;;15.02;100.00;101514.19;5085641;28;20211;-74
2022/10/06 06:11:24;;;;;;;2.50;1.93;;;;;;;15.01;100.00;101517.66;5081439;28;20196;-73
2022/10/06 06:13:57;;;;;;;2.57;1.93;;;;;;;14.99;100.00;101512.44;5082414;28;20212;-74
2022/10/06 06:16:23;;;;;;;3.20;2.10;;;;;;;14.98;100.00;101513.31;5088429;28;20209;-74
2022/10/06 06:18:49;;;;;;;2.53;2.20;;;;;;;14.99;100.00;101525.47;5093671;28;20204;-72
2022/10/06 06:21:14;;;;;;;2.13;1.77;;;;;;;15.00;100.00;101519.38;5085812;28;20311;-74
2022/10/06 06:23:43;;;;;;;2.80;2.17;;;;;;;15.00;100.00;101527.19;5089195;28;20237;-74
2022/10/06 06:26:11;;;;;;;2.80;2.20;;;;;;;15.02;100.00;101529.81;5091141;28;20181;-73
2022/10/06 06:28:37;;;;;;;3.30;1.90;;;;;;;15.05;100.00;101535.00;5096572;28;20612;-73
2022/10/06 06:31:11;;;;;;;4.50;2.03;;;;;;;15.07;100.00;101541.06;5085577;28;20184;-73
2022/10/06 06:33:38;;;;;;;2.60;1.83;;;;;;;15.08;100.00;101540.19;5093788;28;20242;-75
2022/10/06 06:36:28;;;;;;;3.17;1.90;;;;;;;15.09;100.00;101548.00;5096097;28;20207;-74
2022/10/06 06:38:57;;;;;;;3.20;1.60;;;;;;;15.10;100.00;101564.50;5100798;28;20238;-73
2022/10/06 06:41:23;;;;;;;2.30;1.33;;;;;;;15.11;100.00;101575.81;5098142;28;20238;-74
2022/10/06 06:43:51;;;;;;;2.47;1.67;;;;;;;15.11;100.00;101573.22;5099138;28;20235;-73
2022/10/06 06:46:18;;;;;;;1.97;1.30;;;;;;;15.11;100.00;101584.50;5084389;28;20221;-74
2022/10/06 06:48:44;;;;;;;2.23;1.30;;;;;;;15.11;100.00;101584.50;5104570;28;20760;-74
2022/10/06 06:51:10;;;;;;;2.80;1.67;;;;;;;15.11;100.00;101586.25;5099537;28;20735;-75
2022/10/06 06:53:36;;;;;;;2.30;1.40;;;;;;;15.12;100.00;101594.03;5098060;28;21070;-76
2022/10/06 06:56:02;;;;;;;3.43;1.57;;;;;;;15.12;100.00;101599.25;5089932;28;20185;-73
2022/10/06 06:58:29;;;;;;;2.47;1.30;;;;;;;15.13;100.00;101598.38;5093950;28;20232;-74
2022/10/06 07:01:02;;;;;;;2.33;1.30;;;;;;;15.14;100.00;101605.31;5097083;28;20187;-72
2022/10/06 07:03:28;;;;;;;2.07;1.40;;;;;;;15.17;100.00;101612.25;5089940;28;20279;-73
2022/10/06 07:06:05;;;;;;;2.33;1.40;;;;;;;15.19;100.00;101615.72;5100751;28;20185;-73
2022/10/06 07:08:30;;;;;;;2.10;1.30;;;;;;;15.21;100.00;101614.81;5096719;28;20193;-73
2022/10/06 07:10:56;;;;;;;2.10;1.60;;;;;;;15.24;100.00;101611.34;5098534;28;20184;-75
2022/10/06 07:13:22;;;;;;;3.43;1.90;;;;;;;15.29;100.00;101613.91;5090927;28;20181;-73
2022/10/06 07:26:43;;;;;;;1.93;1.43;;;;;;;15.55;100.00;101634.59;5090282;28;20683;-73
2022/10/06 07:29:09;;;;;;;1.93;1.40;;;;;;;15.61;100.00;101633.69;5089729;28;20193;-74
2022/10/06 07:31:35;;;;;;;2.90;1.67;;;;;;;15.66;100.00;101640.59;5084058;28;20193;-73
2022/10/06 07:34:05;;;;;;;2.20;1.53;;;;;;;15.70;100.00;101641.41;5089562;28;20216;-73
2022/10/06 07:36:31;;;;;;;1.93;1.63;;;;;;;15.73;100.00;101648.38;5087827;28;20631;-73
2022/10/06 07:38:56;;;;;;;3.50;1.60;;;;;;;15.77;100.00;101648.31;5089166;28;20208;-72
2022/10/06 07:41:22;;;;;;;1.97;1.53;;;;;;;15.80;100.00;101644.81;5085927;28;20193;-74
2022/10/06 07:43:48;;;;;;;2.40;1.40;;;;;;;15.87;100.00;101649.16;5087077;28;20216;-74
2022/10/06 07:46:13;;;;;;;2.00;1.47;;;;;;;15.91;100.00;101652.59;5075011;28;20204;-73
2022/10/06 07:48:39;;;;;;;3.37;1.20;;;;;;;15.97;100.00;101649.91;5090638;28;20585;-73
2022/10/06 07:51:12;;;;;;;2.07;1.17;;;;;;;16.04;100.00;101654.19;5087391;28;20249;-74
2022/10/06 07:53:38;;;;;;;2.33;1.40;;;;;;;16.12;100.00;101657.59;5077276;28;20570;-75
2022/10/06 07:56:05;;;;;;;2.13;1.50;;;;;;;16.22;100.00;101666.19;5082661;28;20209;-74
2022/10/06 07:58:36;;;;;;;2.33;1.33;;;;;;;16.32;100.00;101666.13;5075826;28;20589;-73
2022/10/06 08:01:10;;;;;;;3.00;1.53;;;;;;;16.41;100.00;101666.84;5078260;28;20292;-72
2022/10/06 08:03:36;;;;;;;2.00;1.20;;;;;;;16.54;100.00;101661.50;5081893;28;20227;-71
2022/10/06 08:06:02;;;;;;;2.87;1.40;;;;;;;16.69;100.00;101653.47;5079650;28;20192;-73
2022/10/06 08:08:35;;;;;;;1.87;1.50;;;;;;;16.86;100.00;101660.25;5087933;28;20200;-75
2022/10/06 08:11:01;;;;;;;1.87;1.37;;;;;;;17.01;100.00;101665.28;5088632;28;20179;-73
2022/10/06 08:13:26;;;;;;;2.63;1.10;;;;;;;17.14;100.00;101665.97;5083705;28;20178;-73
2022/10/06 08:15:53;;;;;;;2.70;1.10;;;;;;;17.26;100.00;101669.28;5081192;28;20252;-73
2022/10/06 08:18:19;;;;;;;2.50;1.40;;;;;;;17.35;100.00;101670.03;5079132;28;20216;-73
2022/10/06 08:20:45;;;;;;;1.93;1.30;;;;;;;17.48;100.00;101672.44;5088978;28;20184;-72
2022/10/06 08:23:11;;;;;;;2.43;1.20;;;;;;;17.59;100.00;101675.78;5080648;28;20273;-74
2022/10/06 08:25:42;;;;;;;2.20;1.00;;;;;;;17.70;100.00;101674.72;5079772;28;20185;-73
2022/10/06 08:28:11;;;;;;;2.77;1.37;;;;;;;17.77;100.00;101671.97;5076894;28;20214;-74
2022/10/06 08:30:37;;;;;;;2.80;1.40;;;;;;;17.80;100.00;101676.28;5086085;28;20616;-73
2022/10/06 08:33:04;;;;;;;2.13;1.13;;;;;;;17.86;100.00;101676.19;5080912;28;20228;-74
2022/10/06 08:35:30;;;;;;;2.90;1.00;;;;;;;17.96;100.00;101692.63;5086951;28;20190;-73
2022/10/06 08:37:56;;;;;;;1.17;0.73;;;;;;;18.02;100.00;101689.06;5086268;28;20227;-71
2022/10/06 08:40:22;;;;;;;2.67;1.03;;;;;;;18.05;100.00;101683.78;5081537;28;20221;-74
2022/10/06 08:42:49;;;;;;;2.47;1.13;;;;;;;18.08;100.00;101687.19;5088502;28;20184;-73
2022/10/06 08:45:24;;;;;;;2.83;1.10;;;;;;;18.17;100.00;101686.16;5086893;28;20172;-73
2022/10/06 08:47:59;;;;;;;3.53;1.20;;;;;;;18.28;100.00;101689.44;5074679;28;20279;-73
2022/10/06 08:50:27;;;;;;;2.00;0.93;;;;;;;18.43;100.00;101693.53;5085398;28;20180;-71
2022/10/06 08:52:58;;;;;;;1.73;0.97;;;;;;;18.56;100.00;101704.63;5088187;28;20185;-75
2022/10/06 08:55:48;;;;;;;1.40;0.90;;;;;;;18.68;100.00;101697.44;5086601;28;20291;-72
2022/10/06 08:58:29;;;;;;;1.50;0.80;;;;;;;18.74;100.00;101697.28;5084515;28;20272;-73
2022/10/06 09:01:17;;;;;;;1.13;0.70;;;;;;;18.82;100.00;101700.63;5088176;28;20176;-71
2022/10/06 09:03:48;;;;;;;2.50;1.00;;;;;;;18.88;100.00;101708.34;5087194;28;20200;-72
2022/10/06 09:06:38;;;;;;;2.73;0.83;;;;;;;18.95;100.00;101705.66;5086083;28;20209;-74
2022/10/06 09:09:16;;;;;;;1.57;0.90;;;;;;;19.01;99.74;101713.38;5082720;28;20696;-73
2022/10/06 09:11:48;;;;;;;1.87;0.80;;;;;;;19.06;98.93;101715.91;5086180;28;20189;-73
2022/10/06 09:14:21;;;;;;;1.87;0.93;;;;;;;19.11;98.75;101714.91;5092687;28;20182;-73
2022/10/06 09:16:59;;;;;;;2.73;1.03;;;;;;;19.19;97.72;101715.59;5096102;28;20593;-73
2022/10/06 09:19:51;;;;;;;2.87;1.47;;;;;;;19.26;97.43;101721.56;5086168;28;20302;-73
2022/10/06 09:22:21;;;;;;;1.93;0.90;;;;;;;19.38;97.26;101724.81;5081480;28;20185;-72
2022/10/06 09:24:50;;;;;;;1.93;1.00;;;;;;;19.44;97.23;101728.16;5083642;28;20274;-73
2022/10/06 09:27:19;;;;;;;2.30;1.00;;;;;;;19.53;96.79;101734.94;5081019;28;20177;-72
2022/10/06 09:29:47;;;;;;;3.23;1.10;;;;;;;19.59;96.42;101732.19;5086461;28;20266;-73
2022/10/06 09:32:13;;;;;;;2.80;1.03;;;;;;;19.59;95.42;101733.94;5087624;28;20291;-72
2022/10/06 09:34:48;;;;;;;1.67;0.93;;;;;;;19.66;94.60;101735.53;5084973;28;20342;-73
2022/10/06 09:37:13;;;;;;;4.10;1.10;;;;;;;19.77;94.14;101725.63;5087920;28;20785;-72
2022/10/06 09:39:41;;;;;;;3.20;1.50;;;;;;;19.86;93.99;101726.31;5085192;28;20212;-74
2022/10/06 09:42:28;;;;;;;4.13;1.27;;;;;;;19.95;93.06;101731.38;5080131;28;20295;-73
2022/10/06 09:45:03;;;;;;;2.87;1.07;;;;;;;20.04;91.38;101728.50;5087785;28;20200;-73
2022/10/06 09:47:32;;;;;;;2.03;1.10;;;;;;;20.10;91.03;101724.88;5079743;28;20177;-73
2022/10/06 09:50:16;;;;;;;3.17;1.53;;;;;;;20.27;90.07;101729.66;5086466;28;20185;-73
2022/10/06 09:53:03;;;;;;;2.40;1.40;;;;;;;20.31;89.89;101733.06;5067756;28;20600;-72
2022/10/06 09:55:35;;;;;;;2.30;1.03;;;;;;;20.32;89.37;101725.16;5083040;28;20241;-73
2022/10/06 09:58:01;;;;;;;3.23;1.20;;;;;;;20.36;89.10;101732.03;5087798;28;20304;-72
2022/10/06 10:00:26;;;;;;;2.50;1.20;;;;;;;20.35;88.76;101740.81;5087358;28;20878;-74
2022/10/06 10:03:03;;;;;;;2.33;1.17;;;;;;;20.41;87.87;101734.56;5082155;28;20250;-73
2022/10/06 10:05:32;;;;;;;2.70;1.30;;;;;;;20.49;87.83;101736.97;5075686;28;20185;-73
2022/10/06 10:08:01;;;;;;;1.70;0.83;;;;;;;20.66;87.75;101729.47;5089949;28;20280;-72
2022/10/06 10:10:27;;;;;;;3.23;1.20;;;;;;;20.78;86.96;101725.66;5086119;28;20185;-73
2022/10/06 10:12:53;;;;;;;1.63;1.10;;;;;;;20.91;86.66;101731.44;5091520;28;20246;-73
2022/10/06 10:15:19;;;;;;;3.50;1.40;;;;;;;21.01;85.86;101727.63;5104560;28;20187;-76
2022/10/06 10:17:50;;;;;;;2.40;1.20;;;;;;;21.16;85.44;101723.69;5088345;28;20217;-73
2022/10/06 10:20:23;;;;;;;2.47;1.20;;;;;;;21.27;83.20;101723.31;5089775;28;20178;-72
2022/10/06 10:22:57;;;;;;;2.67;1.30;;;;;;;21.36;83.30;101723.97;5089956;28;20619;-73
2022/10/06 10:25:53;;;;;;;2.70;1.20;;;;;;;21.53;83.08;101726.91;5089937;28;20200;-74
2022/10/06 10:28:27;;;;;;;4.50;1.40;;;;;;;21.50;82.62;101720.88;5082539;28;20229;-76
2022/10/06 10:31:13;;;;;;;3.00;1.30;;;;;;;21.40;82.59;101715.91;5086240;28;20273;-71
2022/10/06 10:33:57;;;;;;;2.37;1.33;;;;;;;21.29;82.67;101718.88;5086056;28;20818;-74
2022/10/06 10:36:33;;;;;;;2.40;1.30;;;;;;;21.17;82.79;101720.13;5089053;28;20200;-73
2022/10/06 10:39:00;;;;;;;2.30;1.03;;;;;;;21.20;83.15;101724.44;5087392;28;20291;-73
2022/10/06 10:41:33;;;;;;;1.80;1.37;;;;;;;21.25;83.70;101724.28;5087254;28;20177;-74
2022/10/06 10:44:12;;;;;;;2.53;1.27;;;;;;;21.35;84.10;101719.59;5087811;28;20505;-73
2022/10/06 10:46:51;;;;;;;2.60;1.20;;;;;;;21.45;84.04;101719.28;5086049;28;20172;-74
2022/10/06 10:49:26;;;;;;;3.30;1.40;;;;;;;21.59;83.32;101725.84;5082596;28;20193;-72
2022/10/06 10:52:15;;;;;;;3.63;1.10;;;;;;;21.70;83.56;101720.28;5089085;28;20169;-73
2022/10/06 10:54:45;;;;;;;1.67;1.00;;;;;;;21.76;83.50;101720.94;5086665;28;20584;-72
2022/10/06 10:57:20;;;;;;;2.53;1.40;;;;;;;21.80;83.20;101721.69;5090020;28;20185;-71
2022/10/06 10:59:59;;;;;;;3.60;1.30;;;;;;;21.76;83.50;101715.66;5081668;28;20204;-72
2022/10/06 11:02:26;;;;;;;2.13;1.13;;;;;;;21.78;83.95;101712.97;5085714;28;20197;-73
2022/10/06 11:04:56;;;;;;;3.00;1.50;;;;;;;21.78;82.80;101715.59;5077278;28;20177;-72
2022/10/06 11:07:42;;;;;;;3.17;1.50;;;;;;;21.52;82.68;101714.66;5079942;28;20978;-73
2022/10/06 11:10:30;;;;;;;3.73;1.67;;;;;;;21.24;82.56;101712.91;5055149;28;20190;-72
2022/10/06 11:13:25;;;;;;;5.10;1.53;;;;;;;21.08;83.20;101711.66;5076645;28;20246;-72
2022/10/06 11:16:28;;;;;;;2.63;1.20;;;;;;;21.15;82.88;101714.06;5073713;28;20181;-73
2022/10/06 11:19:13;;;;;;;2.13;1.07;;;;;;;21.18;82.55;101710.44;5084913;28;20567;-71
2022/10/06 11:21:54;;;;;;;3.90;1.80;;;;;;;21.24;82.81;101712.91;5079124;28;20672;-73
2022/10/06 11:24:38;;;;;;;3.07;1.40;;;;;;;21.39;82.56;101713.34;5083112;28;20264;-73
2022/10/06 11:27:19;;;;;;;1.47;1.00;;;;;;;21.57;82.75;101707.44;5079110;28;20217;-74
2022/10/06 11:30:03;;;;;;;2.50;1.33;;;;;;;21.63;82.85;101711.69;5078838;28;20708;-73
2022/10/06 11:33:05;;;;;;;2.90;1.23;;;;;;;21.62;82.49;101717.91;5078991;28;20195;-72
2022/10/06 11:35:37;;;;;;;2.80;1.40;;;;;;;21.67;82.78;101717.75;5076093;28;20177;-72
2022/10/06 11:38:30;;;;;;;3.23;1.47;;;;;;;21.52;82.69;101701.50;5089448;28;20216;-72
2022/10/06 11:41:11;;;;;;;2.93;1.30;;;;;;;21.50;82.76;101702.44;5074970;28;20604;-74
2022/10/06 11:43:59;;;;;;;2.97;1.47;;;;;;;21.43;82.18;101700.00;5085422;28;20520;-72